sensor_id;sensor_type;location;lat;lon;timestamp;pressure;altitude;pressure_sealevel;temperature;humidity
73085;BME280;62974;49.460;10.892;2022-11-15T00:00:47;97731.78;;;5.13;90.18
73085;BME280;62974;49.460;10.892;2022-11-15T00:03:15;97732.75;;;5.44;91.50
73085;BME280;62974;49.460;10.892;2022-11-15T00:05:43;97727.56;;;5.43;90.95
73085;BME280;62974;49.460;10.892;2022-11-15T00:08:11;97722.59;;;5.40;90.59
73085;BME280;62974;49.460;10.892;2022-11-15T00:10:39;97726.22;;;5.47;90.90
73085;BME280;62974;49.460;10.892;2022-11-15T00:13:07;97725.75;;;5.43;91.13
73085;BME280;62974;49.460;10.892;2022-11-15T00:15:35;97725.59;;;5.45;90.98
73085;BME280;62974;49.460;10.892;2022-11-15T00:18:05;97727.41;;;5.44;90.41
73085;BME280;62974;49.460;10.892;2022-11-15T00:20:33;97716.75;;;5.44;89.81
73085;BME280;62974;49.460;10.892;2022-11-15T00:23:02;97720.25;;;5.45;89.67
73085;BME280;62974;49.460;10.892;2022-11-15T00:25:30;97714.13;;;5.36;89.45
73085;BME280;62974;49.460;10.892;2022-11-15T00:27:58;97721.41;;;5.42;90.00
73085;BME280;62974;49.460;10.892;2022-11-15T00:30:27;97715.59;;;5.39;89.75
73085;BME280;62974;49.460;10.892;2022-11-15T00:32:54;97718.25;;;5.39;89.81
73085;BME280;62974;49.460;10.892;2022-11-15T00:35:23;97715.84;;;5.05;91.36
73085;BME280;62974;49.460;10.892;2022-11-15T00:37:52;97724.59;;;5.30;91.20
73085;BME280;62974;49.460;10.892;2022-11-15T00:40:19;97726.25;;;5.31;90.99
73085;BME280;62974;49.460;10.892;2022-11-15T00:42:47;97724.94;;;5.35;90.55
73085;BME280;62974;49.460;10.892;2022-11-15T00:45:14;97716.28;;;5.33;89.74
73085;BME280;62974;49.460;10.892;2022-11-15T00:47:43;97723.28;;;5.26;88.85
73085;BME280;62974;49.460;10.892;2022-11-15T00:50:11;97722.28;;;5.27;90.41
73085;BME280;62974;49.460;10.892;2022-11-15T00:52:42;97720.94;;;5.31;91.06
73085;BME280;62974;49.460;10.892;2022-11-15T00:55:13;97718.78;;;5.26;90.88
73085;BME280;62974;49.460;10.892;2022-11-15T00:57:41;97711.81;;;5.25;89.67
73085;BME280;62974;49.460;10.892;2022-11-15T01:00:09;97715.81;;;5.21;89.31
73085;BME280;62974;49.460;10.892;2022-11-15T01:02:37;97708.97;;;5.27;89.14
73085;BME280;62974;49.460;10.892;2022-11-15T01:05:05;97711.63;;;5.27;90.20
73085;BME280;62974;49.460;10.892;2022-11-15T01:07:32;97712.81;;;5.24;89.85
73085;BME280;62974;49.460;10.892;2022-11-15T01:10:02;97710.81;;;5.18;89.50
73085;BME280;62974;49.460;10.892;2022-11-15T01:12:29;97714.31;;;5.18;88.72
73085;BME280;62974;49.460;10.892;2022-11-15T01:14:57;97705.31;;;5.19;89.77
73085;BME280;62974;49.460;10.892;2022-11-15T01:17:24;97706.00;;;5.13;88.92
73085;BME280;62974;49.460;10.892;2022-11-15T01:19:52;97701.19;;;5.09;88.84
73085;BME280;62974;49.460;10.892;2022-11-15T01:22:20;97698.84;;;5.14;89.32
73085;BME280;62974;49.460;10.892;2022-11-15T01:24:49;97696.03;;;4.99;89.37
73085;BME280;62974;49.460;10.892;2022-11-15T01:27:17;97691.41;;;4.85;88.97
73085;BME280;62974;49.460;10.892;2022-11-15T01:29:45;97692.38;;;5.08;89.48
73085;BME280;62974;49.460;10.892;2022-11-15T01:32:12;97686.72;;;5.11;88.69
73085;BME280;62974;49.460;10.892;2022-11-15T01:34:40;97678.59;;;5.05;89.01
73085;BME280;62974;49.460;10.892;2022-11-15T01:37:07;97681.41;;;5.03;89.48
73085;BME280;62974;49.460;10.892;2022-11-15T01:39:35;97676.75;;;4.97;90.10
73085;BME280;62974;49.460;10.892;2022-11-15T01:42:03;97677.06;;;5.02;90.37
73085;BME280;62974;49.460;10.892;2022-11-15T01:44:41;97672.91;;;5.08;90.41
73085;BME280;62974;49.460;10.892;2022-11-15T01:47:12;97673.91;;;5.07;90.92
73085;BME280;62974;49.460;10.892;2022-11-15T01:49:49;97666.75;;;5.07;90.06
73085;BME280;62974;49.460;10.892;2022-11-15T01:52:20;97660.94;;;5.04;90.36
73085;BME280;62974;49.460;10.892;2022-11-15T01:54:52;97665.78;;;4.92;90.30
73085;BME280;62974;49.460;10.892;2022-11-15T01:57:21;97663.97;;;4.85;92.40
73085;BME280;62974;49.460;10.892;2022-11-15T01:59:53;97662.47;;;4.74;93.97
73085;BME280;62974;49.460;10.892;2022-11-15T02:02:21;97653.47;;;4.99;91.89
73085;BME280;62974;49.460;10.892;2022-11-15T02:04:49;97646.19;;;4.85;91.88
73085;BME280;62974;49.460;10.892;2022-11-15T02:07:18;97648.31;;;4.90;93.55
73085;BME280;62974;49.460;10.892;2022-11-15T02:09:47;97644.03;;;4.81;93.43
73085;BME280;62974;49.460;10.892;2022-11-15T02:12:18;97649.47;;;5.03;92.60
73085;BME280;62974;49.460;10.892;2022-11-15T02:14:48;97650.28;;;5.12;92.19
73085;BME280;62974;49.460;10.892;2022-11-15T02:20:39;97654.81;;;4.95;93.54
73085;BME280;62974;49.460;10.892;2022-11-15T02:26:25;97643.31;;;4.95;92.93
73085;BME280;62974;49.460;10.892;2022-11-15T02:29:01;97630.69;;;5.05;92.30
73085;BME280;62974;49.460;10.892;2022-11-15T02:31:36;97622.53;;;4.98;91.46
73085;BME280;62974;49.460;10.892;2022-11-15T02:34:12;97624.19;;;4.99;92.05
73085;BME280;62974;49.460;10.892;2022-11-15T02:36:43;97624.69;;;5.03;92.14
73085;BME280;62974;49.460;10.892;2022-11-15T02:39:23;97611.38;;;5.03;91.57
73085;BME280;62974;49.460;10.892;2022-11-15T02:41:57;97614.88;;;5.03;91.69
73085;BME280;62974;49.460;10.892;2022-11-15T02:44:32;97612.38;;;5.02;91.75
73085;BME280;62974;49.460;10.892;2022-11-15T02:47:06;97604.25;;;4.95;91.54
73085;BME280;62974;49.460;10.892;2022-11-15T02:49:43;97600.75;;;4.95;91.83
73085;BME280;62974;49.460;10.892;2022-11-15T02:52:14;97597.75;;;4.98;92.04
73085;BME280;62974;49.460;10.892;2022-11-15T02:54:42;97605.44;;;4.85;92.47
73085;BME280;62974;49.460;10.892;2022-11-15T02:57:14;97593.97;;;4.92;91.23
73085;BME280;62974;49.460;10.892;2022-11-15T03:00:05;97597.44;;;4.93;91.54
73085;BME280;62974;49.460;10.892;2022-11-15T03:02:42;97595.78;;;4.92;91.30
73085;BME280;62974;49.460;10.892;2022-11-15T03:05:19;97581.00;;;4.89;90.53
73085;BME280;62974;49.460;10.892;2022-11-15T03:07:53;97591.97;;;4.86;90.11
73085;BME280;62974;49.460;10.892;2022-11-15T03:10:34;97589.88;;;4.49;91.69
73085;BME280;62974;49.460;10.892;2022-11-15T03:13:09;97595.00;;;4.59;92.19
73085;BME280;62974;49.460;10.892;2022-11-15T03:15:44;97586.81;;;4.85;90.71
73085;BME280;62974;49.460;10.892;2022-11-15T03:18:21;97583.03;;;4.71;90.86
73085;BME280;62974;49.460;10.892;2022-11-15T03:20:50;97580.53;;;4.69;92.18
73085;BME280;62974;49.460;10.892;2022-11-15T03:23:19;97577.69;;;4.79;91.78
73085;BME280;62974;49.460;10.892;2022-11-15T03:25:48;97568.72;;;4.80;89.61
73085;BME280;62974;49.460;10.892;2022-11-15T03:28:20;97569.34;;;4.82;89.97
73085;BME280;62974;49.460;10.892;2022-11-15T03:30:50;97576.53;;;4.82;90.60
73085;BME280;62974;49.460;10.892;2022-11-15T03:33:21;97570.19;;;4.83;90.48
73085;BME280;62974;49.460;10.892;2022-11-15T03:35:49;97564.88;;;3.45;95.75
73085;BME280;62974;49.460;10.892;2022-11-15T03:38:19;97562.47;;;4.49;93.51
73085;BME280;62974;49.460;10.892;2022-11-15T03:40:53;97564.75;;;4.68;90.88
73085;BME280;62974;49.460;10.892;2022-11-15T03:43:29;97564.41;;;4.71;90.26
73085;BME280;62974;49.460;10.892;2022-11-15T03:46:01;97566.56;;;4.67;89.47
73085;BME280;62974;49.460;10.892;2022-11-15T03:48:37;97570.91;;;4.68;90.37
73085;BME280;62974;49.460;10.892;2022-11-15T03:51:07;97570.41;;;4.65;91.19
73085;BME280;62974;49.460;10.892;2022-11-15T03:53:35;97567.75;;;4.73;90.95
73085;BME280;62974;49.460;10.892;2022-11-15T03:56:02;97569.38;;;4.74;91.11
73085;BME280;62974;49.460;10.892;2022-11-15T03:58:30;97564.06;;;4.74;90.91
73085;BME280;62974;49.460;10.892;2022-11-15T04:00:57;97561.09;;;4.77;90.87
73085;BME280;62974;49.460;10.892;2022-11-15T04:03:25;97559.56;;;4.74;90.27
73085;BME280;62974;49.460;10.892;2022-11-15T04:05:54;97561.09;;;4.69;89.47
73085;BME280;62974;49.460;10.892;2022-11-15T04:08:22;97556.63;;;4.61;89.69
73085;BME280;62974;49.460;10.892;2022-11-15T04:10:49;97553.28;;;4.67;90.62
73085;BME280;62974;49.460;10.892;2022-11-15T04:13:17;97552.63;;;4.73;89.90
73085;BME280;62974;49.460;10.892;2022-11-15T04:15:44;97563.91;;;4.67;89.47
73085;BME280;62974;49.460;10.892;2022-11-15T04:18:12;97557.78;;;4.59;89.97
73085;BME280;62974;49.460;10.892;2022-11-15T04:20:39;97555.84;;;4.29;90.64
73085;BME280;62974;49.460;10.892;2022-11-15T04:23:25;97561.75;;;4.63;89.81
73085;BME280;62974;49.460;10.892;2022-11-15T04:26:14;97554.97;;;4.60;89.50
73085;BME280;62974;49.460;10.892;2022-11-15T04:28:43;97560.78;;;4.56;90.26
73085;BME280;62974;49.460;10.892;2022-11-15T04:31:24;97557.16;;;4.41;91.62
73085;BME280;62974;49.460;10.892;2022-11-15T04:33:52;97548.47;;;4.55;89.97
73085;BME280;62974;49.460;10.892;2022-11-15T04:36:20;97545.66;;;4.56;89.66
73085;BME280;62974;49.460;10.892;2022-11-15T04:39:07;97545.53;;;4.50;88.67
73085;BME280;62974;49.460;10.892;2022-11-15T04:41:34;97545.69;;;4.48;89.84
73085;BME280;62974;49.460;10.892;2022-11-15T04:44:02;97543.16;;;4.55;89.58
73085;BME280;62974;49.460;10.892;2022-11-15T04:46:29;97546.50;;;4.57;89.58
73085;BME280;62974;49.460;10.892;2022-11-15T04:48:57;97543.03;;;4.48;89.28
73085;BME280;62974;49.460;10.892;2022-11-15T04:51:25;97539.38;;;4.49;89.79
73085;BME280;62974;49.460;10.892;2022-11-15T04:53:52;97535.03;;;4.48;89.20
73085;BME280;62974;49.460;10.892;2022-11-15T04:56:21;97525.06;;;4.50;89.09
73085;BME280;62974;49.460;10.892;2022-11-15T04:58:49;97529.88;;;4.47;89.78
73085;BME280;62974;49.460;10.892;2022-11-15T05:01:16;97519.59;;;4.44;89.01
73085;BME280;62974;49.460;10.892;2022-11-15T05:03:44;97510.97;;;4.42;88.87
73085;BME280;62974;49.460;10.892;2022-11-15T05:06:30;97512.09;;;4.47;89.80
73085;BME280;62974;49.460;10.892;2022-11-15T05:08:58;97517.44;;;4.39;87.89
73085;BME280;62974;49.460;10.892;2022-11-15T05:11:27;97513.97;;;4.31;88.88
73085;BME280;62974;49.460;10.892;2022-11-15T05:13:54;97512.47;;;4.36;87.73
73085;BME280;62974;49.460;10.892;2022-11-15T05:16:22;97522.94;;;4.38;89.52
73085;BME280;62974;49.460;10.892;2022-11-15T05:18:50;97519.75;;;4.42;89.43
73085;BME280;62974;49.460;10.892;2022-11-15T05:21:18;97518.16;;;3.93;92.06
73085;BME280;62974;49.460;10.892;2022-11-15T05:23:46;97513.47;;;4.35;89.10
73085;BME280;62974;49.460;10.892;2022-11-15T05:26:15;97512.47;;;4.28;88.70
73085;BME280;62974;49.460;10.892;2022-11-15T05:28:45;97512.63;;;4.35;89.44
73085;BME280;62974;49.460;10.892;2022-11-15T05:31:13;97505.47;;;4.35;89.94
73085;BME280;62974;49.460;10.892;2022-11-15T05:33:43;97501.69;;;4.30;88.58
73085;BME280;62974;49.460;10.892;2022-11-15T05:36:15;97500.19;;;4.27;88.33
73085;BME280;62974;49.460;10.892;2022-11-15T05:38:45;97498.22;;;4.21;88.17
73085;BME280;62974;49.460;10.892;2022-11-15T05:41:13;97494.72;;;4.29;89.19
73085;BME280;62974;49.460;10.892;2022-11-15T05:43:42;97488.56;;;4.28;89.13
73085;BME280;62974;49.460;10.892;2022-11-15T05:46:11;97494.22;;;4.25;88.20
73085;BME280;62974;49.460;10.892;2022-11-15T05:48:41;97490.41;;;4.19;87.05
73085;BME280;62974;49.460;10.892;2022-11-15T05:51:12;97493.91;;;4.12;87.49
73085;BME280;62974;49.460;10.892;2022-11-15T05:53:43;97495.22;;;4.16;87.71
73085;BME280;62974;49.460;10.892;2022-11-15T05:56:11;97494.38;;;4.15;88.73
73085;BME280;62974;49.460;10.892;2022-11-15T05:58:39;97503.34;;;4.14;87.16
73085;BME280;62974;49.460;10.892;2022-11-15T06:01:07;97502.69;;;4.12;87.16
73085;BME280;62974;49.460;10.892;2022-11-15T06:03:35;97501.38;;;4.08;87.85
73085;BME280;62974;49.460;10.892;2022-11-15T06:06:03;97502.22;;;4.09;88.20
73085;BME280;62974;49.460;10.892;2022-11-15T06:08:31;97496.66;;;3.21;91.95
73085;BME280;62974;49.460;10.892;2022-11-15T06:11:04;97500.53;;;3.67;88.96
73085;BME280;62974;49.460;10.892;2022-11-15T06:13:32;97503.19;;;3.67;91.56
73085;BME280;62974;49.460;10.892;2022-11-15T06:16:00;97504.19;;;3.99;88.58
73085;BME280;62974;49.460;10.892;2022-11-15T06:18:28;97502.22;;;4.09;89.12
73085;BME280;62974;49.460;10.892;2022-11-15T06:21:00;97500.03;;;3.72;88.40
73085;BME280;62974;49.460;10.892;2022-11-15T06:23:28;97508.50;;;4.00;90.63
73085;BME280;62974;49.460;10.892;2022-11-15T06:25:59;97512.66;;;4.10;89.07
73085;BME280;62974;49.460;10.892;2022-11-15T06:28:28;97501.22;;;4.10;88.35
73085;BME280;62974;49.460;10.892;2022-11-15T06:30:55;97507.34;;;4.02;88.55
73085;BME280;62974;49.460;10.892;2022-11-15T06:33:23;97502.84;;;4.11;88.40
73085;BME280;62974;49.460;10.892;2022-11-15T06:35:50;97496.91;;;4.09;88.61
73085;BME280;62974;49.460;10.892;2022-11-15T06:38:19;97498.03;;;4.06;89.13
73085;BME280;62974;49.460;10.892;2022-11-15T06:40:46;97493.56;;;3.99;88.90
73085;BME280;62974;49.460;10.892;2022-11-15T06:43:14;97486.28;;;4.01;88.28
73085;BME280;62974;49.460;10.892;2022-11-15T06:45:41;97494.06;;;4.02;89.05
73085;BME280;62974;49.460;10.892;2022-11-15T06:48:09;97505.22;;;3.98;88.25
73085;BME280;62974;49.460;10.892;2022-11-15T06:50:36;97505.34;;;3.80;90.55
73085;BME280;62974;49.460;10.892;2022-11-15T06:53:04;97507.81;;;3.49;91.23
73085;BME280;62974;49.460;10.892;2022-11-15T06:55:32;97511.00;;;3.77;91.10
73085;BME280;62974;49.460;10.892;2022-11-15T06:58:00;97504.88;;;3.85;90.94
73085;BME280;62974;49.460;10.892;2022-11-15T07:00:27;97508.16;;;3.78;91.68
73085;BME280;62974;49.460;10.892;2022-11-15T07:02:59;97509.19;;;4.02;89.49
73085;BME280;62974;49.460;10.892;2022-11-15T07:05:26;97499.38;;;4.02;88.97
73085;BME280;62974;49.460;10.892;2022-11-15T07:07:55;97505.84;;;3.84;90.52
73085;BME280;62974;49.460;10.892;2022-11-15T07:10:24;97509.31;;;3.52;90.92
73085;BME280;62974;49.460;10.892;2022-11-15T07:12:54;97501.88;;;3.96;90.36
73085;BME280;62974;49.460;10.892;2022-11-15T07:15:23;97513.34;;;3.96;90.82
73085;BME280;62974;49.460;10.892;2022-11-15T07:17:51;97506.19;;;3.64;93.04
73085;BME280;62974;49.460;10.892;2022-11-15T07:20:19;97505.00;;;3.67;90.99
73085;BME280;62974;49.460;10.892;2022-11-15T07:22:46;97506.19;;;3.97;91.54
73085;BME280;62974;49.460;10.892;2022-11-15T07:25:14;97509.34;;;3.76;92.42
73085;BME280;62974;49.460;10.892;2022-11-15T07:27:41;97509.66;;;3.49;93.53
73085;BME280;62974;49.460;10.892;2022-11-15T07:30:12;97507.69;;;3.83;94.47
73085;BME280;62974;49.460;10.892;2022-11-15T07:32:41;97502.56;;;3.90;94.99
73085;BME280;62974;49.460;10.892;2022-11-15T07:35:08;97502.56;;;3.98;93.33
73085;BME280;62974;49.460;10.892;2022-11-15T07:37:35;97494.38;;;4.15;94.10
73085;BME280;62974;49.460;10.892;2022-11-15T07:40:04;97494.06;;;4.10;92.94
73085;BME280;62974;49.460;10.892;2022-11-15T07:42:31;97493.72;;;4.30;92.07
73085;BME280;62974;49.460;10.892;2022-11-15T07:45:18;97499.88;;;4.06;94.95
73085;BME280;62974;49.460;10.892;2022-11-15T07:47:46;97495.06;;;4.09;96.76
73085;BME280;62974;49.460;10.892;2022-11-15T07:50:13;97501.50;;;4.23;94.55
73085;BME280;62974;49.460;10.892;2022-11-15T07:52:41;97492.41;;;4.25;93.95
73085;BME280;62974;49.460;10.892;2022-11-15T07:55:09;97502.34;;;4.15;96.92
73085;BME280;62974;49.460;10.892;2022-11-15T07:57:36;97502.34;;;4.15;95.24
73085;BME280;62974;49.460;10.892;2022-11-15T08:00:05;97498.19;;;4.29;94.92
73085;BME280;62974;49.460;10.892;2022-11-15T08:02:34;97494.38;;;4.23;99.02
73085;BME280;62974;49.460;10.892;2022-11-15T08:05:02;97491.22;;;4.28;94.75
73085;BME280;62974;49.460;10.892;2022-11-15T08:07:30;97486.22;;;4.41;95.00
73085;BME280;62974;49.460;10.892;2022-11-15T08:09:58;97493.03;;;4.36;95.31
73085;BME280;62974;49.460;10.892;2022-11-15T08:12:27;97484.72;;;4.39;95.50
73085;BME280;62974;49.460;10.892;2022-11-15T08:14:54;97498.00;;;4.31;97.72
73085;BME280;62974;49.460;10.892;2022-11-15T08:17:22;97484.72;;;4.39;96.29
73085;BME280;62974;49.460;10.892;2022-11-15T08:19:51;97494.19;;;4.41;100.00
73085;BME280;62974;49.460;10.892;2022-11-15T08:22:19;97489.50;;;4.51;100.00
73085;BME280;62974;49.460;10.892;2022-11-15T08:24:46;97495.78;;;4.58;98.92
73085;BME280;62974;49.460;10.892;2022-11-15T08:27:14;97486.78;;;4.67;99.57
73085;BME280;62974;49.460;10.892;2022-11-15T08:29:42;97489.28;;;4.77;100.00
73085;BME280;62974;49.460;10.892;2022-11-15T08:32:10;97485.06;;;4.83;100.00
73085;BME280;62974;49.460;10.892;2022-11-15T08:34:38;97487.88;;;4.97;100.00
73085;BME280;62974;49.460;10.892;2022-11-15T08:37:07;97474.38;;;4.99;100.00
73085;BME280;62974;49.460;10.892;2022-11-15T08:39:34;97476.88;;;5.00;100.00
73085;BME280;62974;49.460;10.892;2022-11-15T08:42:02;97467.50;;;5.12;100.00
73085;BME280;62974;49.460;10.892;2022-11-15T08:44:29;97468.72;;;5.33;100.00
73085;BME280;62974;49.460;10.892;2022-11-15T08:46:57;97467.72;;;5.56;100.00
73085;BME280;62974;49.460;10.892;2022-11-15T08:49:24;97471.38;;;5.33;100.00
73085;BME280;62974;49.460;10.892;2022-11-15T08:51:52;97466.63;;;5.65;100.00
73085;BME280;62974;49.460;10.892;2022-11-15T08:54:20;97465.63;;;5.66;100.00
73085;BME280;62974;49.460;10.892;2022-11-15T08:56:48;97462.09;;;5.51;99.18
73085;BME280;62974;49.460;10.892;2022-11-15T08:59:16;97460.38;;;5.58;98.33
73085;BME280;62974;49.460;10.892;2022-11-15T09:01:43;97466.16;;;5.62;98.21
73085;BME280;62974;49.460;10.892;2022-11-15T09:04:11;97459.84;;;6.08;100.00
73085;BME280;62974;49.460;10.892;2022-11-15T09:06:38;97455.44;;;6.16;98.35
73085;BME280;62974;49.460;10.892;2022-11-15T09:09:08;97450.38;;;6.21;98.28
73085;BME280;62974;49.460;10.892;2022-11-15T09:11:37;97446.97;;;6.27;96.26
73085;BME280;62974;49.460;10.892;2022-11-15T09:14:05;97443.56;;;5.81;97.57
73085;BME280;62974;49.460;10.892;2022-11-15T09:16:32;97445.97;;;6.28;99.80
73085;BME280;62974;49.460;10.892;2022-11-15T09:19:00;97435.84;;;5.86;98.51
73085;BME280;62974;49.460;10.892;2022-11-15T09:21:35;97442.91;;;5.79;97.19
73085;BME280;62974;49.460;10.892;2022-11-15T09:24:03;97438.78;;;6.13;99.01
73085;BME280;62974;49.460;10.892;2022-11-15T09:26:31;97434.00;;;6.09;97.78
73085;BME280;62974;49.460;10.892;2022-11-15T09:29:00;97428.84;;;6.22;99.27
73085;BME280;62974;49.460;10.892;2022-11-15T09:31:27;97425.28;;;6.30;97.77
73085;BME280;62974;49.460;10.892;2022-11-15T09:33:55;97431.06;;;6.04;99.27
73085;BME280;62974;49.460;10.892;2022-11-15T09:36:23;97435.66;;;6.10;98.65
73085;BME280;62974;49.460;10.892;2022-11-15T09:38:51;97430.91;;;6.20;97.47
73085;BME280;62974;49.460;10.892;2022-11-15T09:41:42;97421.25;;;6.48;98.05
73085;BME280;62974;49.460;10.892;2022-11-15T09:44:26;97416.22;;;7.04;94.52
73085;BME280;62974;49.460;10.892;2022-11-15T09:47:03;97416.47;;;6.58;97.13
73085;BME280;62974;49.460;10.892;2022-11-15T09:49:32;97422.69;;;6.95;95.44
73085;BME280;62974;49.460;10.892;2022-11-15T09:52:00;97421.16;;;6.71;95.74
73085;BME280;62974;49.460;10.892;2022-11-15T09:54:30;97412.84;;;7.17;93.71
73085;BME280;62974;49.460;10.892;2022-11-15T09:57:21;97403.66;;;7.62;93.11
73085;BME280;62974;49.460;10.892;2022-11-15T09:59:58;97402.88;;;7.25;92.42
73085;BME280;62974;49.460;10.892;2022-11-15T10:02:58;97400.41;;;7.45;92.42
73085;BME280;62974;49.460;10.892;2022-11-15T10:05:28;97389.94;;;7.92;89.31
73085;BME280;62974;49.460;10.892;2022-11-15T10:08:01;97395.28;;;7.92;89.56
73085;BME280;62974;49.460;10.892;2022-11-15T10:10:36;97388.28;;;7.64;92.04
73085;BME280;62974;49.460;10.892;2022-11-15T10:13:10;97384.66;;;7.99;90.03
73085;BME280;62974;49.460;10.892;2022-11-15T10:15:43;97378.47;;;7.49;92.22
73085;BME280;62974;49.460;10.892;2022-11-15T10:18:15;97378.94;;;8.30;89.19
73085;BME280;62974;49.460;10.892;2022-11-15T10:20:49;97370.59;;;8.18;89.85
73085;BME280;62974;49.460;10.892;2022-11-15T10:23:18;97354.81;;;7.95;87.27
73085;BME280;62974;49.460;10.892;2022-11-15T10:25:50;97364.13;;;7.78;90.39
73085;BME280;62974;49.460;10.892;2022-11-15T10:28:22;97355.94;;;7.80;89.17
73085;BME280;62974;49.460;10.892;2022-11-15T10:30:53;97354.84;;;8.02;86.91
73085;BME280;62974;49.460;10.892;2022-11-15T10:33:27;97348.34;;;7.83;89.53
73085;BME280;62974;49.460;10.892;2022-11-15T10:36:18;97347.13;;;8.14;88.89
73085;BME280;62974;49.460;10.892;2022-11-15T10:38:55;97341.50;;;8.84;84.79
73085;BME280;62974;49.460;10.892;2022-11-15T10:41:30;97347.81;;;7.67;90.46
73085;BME280;62974;49.460;10.892;2022-11-15T10:44:02;97339.28;;;8.40;88.91
73085;BME280;62974;49.460;10.892;2022-11-15T10:46:31;97330.97;;;8.76;85.58
73085;BME280;62974;49.460;10.892;2022-11-15T10:49:16;97331.13;;;9.22;85.36
73085;BME280;62974;49.460;10.892;2022-11-15T10:51:46;97327.25;;;8.70;87.06
73085;BME280;62974;49.460;10.892;2022-11-15T10:54:18;97319.63;;;9.54;81.85
73085;BME280;62974;49.460;10.892;2022-11-15T10:56:49;97318.81;;;8.73;85.37
73085;BME280;62974;49.460;10.892;2022-11-15T10:59:23;97315.38;;;8.86;84.89
73085;BME280;62974;49.460;10.892;2022-11-15T11:01:53;97310.94;;;9.46;83.89
73085;BME280;62974;49.460;10.892;2022-11-15T11:04:21;97310.13;;;9.45;82.33
73085;BME280;62974;49.460;10.892;2022-11-15T11:06:50;97305.25;;;8.75;84.92
73085;BME280;62974;49.460;10.892;2022-11-15T11:09:30;97296.28;;;9.68;81.95
73085;BME280;62974;49.460;10.892;2022-11-15T11:11:58;97297.94;;;9.69;80.41
73085;BME280;62974;49.460;10.892;2022-11-15T11:14:29;97300.22;;;9.39;83.70
73085;BME280;62974;49.460;10.892;2022-11-15T11:17:03;97300.00;;;9.73;81.50
73085;BME280;62974;49.460;10.892;2022-11-15T11:19:48;97306.09;;;8.88;87.22
73085;BME280;62974;49.460;10.892;2022-11-15T11:22:26;97298.16;;;9.15;85.39
73085;BME280;62974;49.460;10.892;2022-11-15T11:25:08;97280.31;;;10.32;78.06
73085;BME280;62974;49.460;10.892;2022-11-15T11:27:43;97292.78;;;9.41;83.48
73085;BME280;62974;49.460;10.892;2022-11-15T11:30:17;97292.81;;;9.54;83.52
73085;BME280;62974;49.460;10.892;2022-11-15T11:33:00;97286.41;;;9.22;83.79
73085;BME280;62974;49.460;10.892;2022-11-15T11:35:35;97265.41;;;10.49;77.84
73085;BME280;62974;49.460;10.892;2022-11-15T11:38:18;97264.88;;;10.21;79.73
73085;BME280;62974;49.460;10.892;2022-11-15T11:40:59;97252.66;;;10.76;75.69
73085;BME280;62974;49.460;10.892;2022-11-15T11:43:29;97261.78;;;10.11;77.86
73085;BME280;62974;49.460;10.892;2022-11-15T11:46:09;97254.84;;;10.48;76.86
73085;BME280;62974;49.460;10.892;2022-11-15T11:48:43;97259.19;;;10.49;77.55
73085;BME280;62974;49.460;10.892;2022-11-15T11:51:17;97260.69;;;10.31;77.63
73085;BME280;62974;49.460;10.892;2022-11-15T11:53:50;97254.16;;;10.08;78.42
73085;BME280;62974;49.460;10.892;2022-11-15T11:56:26;97239.13;;;10.58;76.54
73085;BME280;62974;49.460;10.892;2022-11-15T11:58:57;97237.63;;;11.06;74.69
73085;BME280;62974;49.460;10.892;2022-11-15T12:01:31;97244.03;;;10.16;78.36
73085;BME280;62974;49.460;10.892;2022-11-15T12:04:08;97236.66;;;10.94;75.69
73085;BME280;62974;49.460;10.892;2022-11-15T12:06:41;97244.06;;;10.99;74.69
73085;BME280;62974;49.460;10.892;2022-11-15T12:09:14;97246.13;;;10.01;81.69
73085;BME280;62974;49.460;10.892;2022-11-15T12:11:48;97247.38;;;9.99;80.62
73085;BME280;62974;49.460;10.892;2022-11-15T12:14:25;97234.88;;;10.37;79.62
73085;BME280;62974;49.460;10.892;2022-11-15T12:16:54;97230.00;;;11.28;74.07
73085;BME280;62974;49.460;10.892;2022-11-15T12:19:23;97230.91;;;11.15;75.16
73085;BME280;62974;49.460;10.892;2022-11-15T12:21:56;97231.34;;;11.12;75.17
73085;BME280;62974;49.460;10.892;2022-11-15T12:24:28;97228.06;;;11.10;74.57
73085;BME280;62974;49.460;10.892;2022-11-15T12:27:00;97243.72;;;10.89;78.81
73085;BME280;62974;49.460;10.892;2022-11-15T12:29:33;97227.13;;;11.23;73.59
73085;BME280;62974;49.460;10.892;2022-11-15T12:32:03;97226.16;;;11.17;76.11
73085;BME280;62974;49.460;10.892;2022-11-15T12:34:41;97220.09;;;10.97;78.04
73085;BME280;62974;49.460;10.892;2022-11-15T12:37:32;97209.38;;;11.22;78.43
73085;BME280;62974;49.460;10.892;2022-11-15T12:40:21;97198.66;;;11.40;75.09
73085;BME280;62974;49.460;10.892;2022-11-15T12:43:04;97201.50;;;10.64;77.09
73085;BME280;62974;49.460;10.892;2022-11-15T12:45:34;97197.44;;;10.87;77.97
73085;BME280;62974;49.460;10.892;2022-11-15T12:51:07;97206.19;;;10.38;81.13
73085;BME280;62974;49.460;10.892;2022-11-15T12:53:34;97211.25;;;10.59;81.13
73085;BME280;62974;49.460;10.892;2022-11-15T12:56:17;97208.44;;;10.41;80.93
73085;BME280;62974;49.460;10.892;2022-11-15T12:58:47;97206.94;;;10.89;78.72
73085;BME280;62974;49.460;10.892;2022-11-15T13:04:24;97209.94;;;10.68;80.07
73085;BME280;62974;49.460;10.892;2022-11-15T13:06:55;97217.22;;;10.10;83.37
73085;BME280;62974;49.460;10.892;2022-11-15T13:09:56;97206.47;;;10.92;78.81
73085;BME280;62974;49.460;10.892;2022-11-15T13:12:53;97192.84;;;10.94;77.44
73085;BME280;62974;49.460;10.892;2022-11-15T13:15:54;97191.09;;;11.06;77.70
73085;BME280;62974;49.460;10.892;2022-11-15T13:18:37;97191.88;;;11.13;77.29
73085;BME280;62974;49.460;10.892;2022-11-15T13:21:20;97194.22;;;11.03;80.29
73085;BME280;62974;49.460;10.892;2022-11-15T13:24:12;97181.66;;;10.97;78.94
73085;BME280;62974;49.460;10.892;2022-11-15T13:26:40;97176.34;;;10.90;80.46
73085;BME280;62974;49.460;10.892;2022-11-15T13:29:18;97170.97;;;11.15;77.64
73085;BME280;62974;49.460;10.892;2022-11-15T13:31:47;97161.06;;;10.91;80.07